Time;durP1;ratioP1;P1;durP2;ratioP2;P2;SDS_P1;SDS_P2;PMS_P1;PMS_P2;Temp;Humidity;BMP_temperature;BMP_pressure;BME280_temperature;BME280_humidity;BME280_pressure;Samples;Min_cycle;Max_cycle;Signal;HPM_P1;HPM_P2
2023/05/13 00:00:57;;;;;;;2.20;2.10;;;10.70;99.90;;;;;;5034121;28;20605;-79
2023/05/13 00:03:22;;;;;;;2.00;1.90;;;10.70;99.90;;;;;;5034148;28;20175;-79
2023/05/13 00:05:48;;;;;;;2.20;1.80;;;10.80;99.90;;;;;;5036428;28;20538;-82
2023/05/13 00:08:14;;;;;;;1.50;1.50;;;10.80;99.90;;;;;;5038402;28;20595;-79
2023/05/13 00:10:40;;;;;;;1.70;1.70;;;10.80;99.90;;;;;;5034081;28;20183;-78
2023/05/13 00:13:05;;;;;;;2.10;2.00;;;10.80;99.90;;;;;;5033757;28;20175;-78
2023/05/13 00:15:31;;;;;;;1.97;1.87;;;10.80;99.90;;;;;;5033687;28;20207;-79
2023/05/13 00:17:57;;;;;;;1.80;1.80;;;10.80;99.90;;;;;;5032493;28;20270;-81
2023/05/13 00:20:22;;;;;;;2.00;1.90;;;10.90;99.90;;;;;;5033741;28;20225;-80
2023/05/13 00:22:48;;;;;;;1.77;1.67;;;10.90;99.90;;;;;;5033865;28;20176;-79
2023/05/13 00:25:14;;;;;;;1.53;1.53;;;10.90;99.90;;;;;;5036515;28;20236;-78
2023/05/13 00:27:40;;;;;;;1.57;1.50;;;10.90;99.90;;;;;;5043314;28;20664;-80
2023/05/13 00:30:07;;;;;;;3.30;1.63;;;10.90;99.90;;;;;;5034353;28;20211;-78
2023/05/13 00:32:33;;;;;;;1.60;1.50;;;10.90;99.90;;;;;;5033547;28;20176;-79
2023/05/13 00:34:58;;;;;;;1.57;1.57;;;10.90;99.90;;;;;;5033190;28;20198;-80
2023/05/13 00:37:24;;;;;;;1.33;1.33;;;10.90;99.90;;;;;;5033151;28;20190;-80
2023/05/13 00:39:50;;;;;;;1.50;1.47;;;10.90;99.90;;;;;;5033219;28;20234;-80
2023/05/13 00:42:15;;;;;;;8.13;1.50;;;10.90;99.90;;;;;;5033122;28;20189;-82
2023/05/13 00:44:41;;;;;;;1.80;1.70;;;10.90;99.90;;;;;;5032485;28;20182;-80
2023/05/13 00:47:10;;;;;;;1.37;1.37;;;10.90;99.90;;;;;;5033026;28;20314;-79
2023/05/13 00:49:36;;;;;;;1.30;1.30;;;10.90;99.90;;;;;;5033565;28;20188;-79
2023/05/13 00:52:02;;;;;;;1.10;1.10;;;10.80;99.90;;;;;;5032201;28;20521;-80
2023/05/13 00:54:28;;;;;;;1.30;1.30;;;10.80;99.90;;;;;;5036426;28;20178;-80
2023/05/13 00:56:55;;;;;;;1.33;1.33;;;10.80;99.90;;;;;;5037931;28;20674;-80
2023/05/13 00:59:26;;;;;;;1.00;1.00;;;10.80;99.90;;;;;;5035119;28;20187;-79
2023/05/13 01:02:04;;;;;;;1.30;1.30;;;10.80;99.90;;;;;;5033009;28;20174;-79
2023/05/13 01:04:52;;;;;;;1.40;1.40;;;10.80;99.90;;;;;;5031297;28;20199;-80
2023/05/13 01:07:26;;;;;;;1.57;1.50;;;10.80;99.90;;;;;;5032434;28;20230;-80
2023/05/13 01:09:57;;;;;;;1.83;1.23;;;10.90;99.90;;;;;;5032658;28;20186;-78
2023/05/13 01:12:31;;;;;;;1.40;1.40;;;10.80;99.90;;;;;;5032786;28;20160;-80
2023/05/13 01:15:21;;;;;;;1.27;1.27;;;10.90;99.90;;;;;;5033007;28;20201;-79
2023/05/13 01:18:06;;;;;;;1.33;1.33;;;10.80;99.90;;;;;;5034002;28;20166;-79
2023/05/13 01:20:33;;;;;;;1.30;1.20;;;10.80;99.90;;;;;;5031466;28;20836;-79
2023/05/13 01:22:59;;;;;;;1.43;1.43;;;10.80;99.90;;;;;;5032965;28;20162;-78
2023/05/13 01:25:25;;;;;;;1.40;1.40;;;10.80;99.90;;;;;;5035365;28;20175;-79
2023/05/13 01:27:52;;;;;;;1.37;1.37;;;10.80;99.90;;;;;;5034967;28;20175;-81
2023/05/13 01:30:18;;;;;;;1.80;1.80;;;10.80;99.90;;;;;;5033742;28;20260;-79
2023/05/13 01:32:45;;;;;;;1.60;1.50;;;10.80;99.90;;;;;;5032956;28;20168;-81
2023/05/13 01:35:11;;;;;;;1.33;1.33;;;10.80;99.90;;;;;;5032889;28;20211;-79
2023/05/13 01:37:37;;;;;;;1.40;1.40;;;10.70;99.90;;;;;;5033375;28;20248;-80
2023/05/13 01:40:06;;;;;;;1.27;1.27;;;10.80;99.90;;;;;;5033379;28;20198;-80
2023/05/13 01:42:33;;;;;;;1.13;1.10;;;10.80;99.90;;;;;;5035716;28;20186;-80
2023/05/13 01:44:59;;;;;;;1.30;1.30;;;10.60;99.90;;;;;;5036493;28;20257;-78
2023/05/13 01:47:25;;;;;;;1.13;1.13;;;10.60;99.90;;;;;;5038745;28;20206;-79
2023/05/13 01:49:51;;;;;;;1.17;1.17;;;10.60;99.90;;;;;;5032773;28;20177;-80
2023/05/13 01:52:17;;;;;;;1.20;1.20;;;10.70;99.90;;;;;;5031415;28;20233;-80
2023/05/13 01:54:43;;;;;;;1.10;1.10;;;10.70;99.90;;;;;;5032447;28;20184;-78
2023/05/13 01:57:09;;;;;;;1.03;1.03;;;10.60;99.90;;;;;;5034693;28;20185;-78
2023/05/13 01:59:34;;;;;;;1.10;1.10;;;10.60;99.90;;;;;;5036560;28;20530;-80
2023/05/13 02:02:00;;;;;;;1.23;1.23;;;10.50;99.90;;;;;;5036450;28;20311;-78
2023/05/13 02:04:26;;;;;;;1.00;1.00;;;10.40;99.90;;;;;;5036553;28;20519;-79
2023/05/13 02:06:52;;;;;;;1.20;1.20;;;10.30;99.90;;;;;;5036285;28;20240;-79
2023/05/13 02:09:17;;;;;;;1.37;1.37;;;10.40;99.90;;;;;;5036657;28;20653;-79
2023/05/13 02:11:45;;;;;;;1.00;1.00;;;10.40;99.90;;;;;;5036326;28;20179;-79
2023/05/13 02:14:11;;;;;;;1.10;1.10;;;10.30;99.90;;;;;;5036425;28;20257;-80
2023/05/13 02:16:37;;;;;;;1.43;1.33;;;10.40;99.90;;;;;;5035415;28;20656;-79
2023/05/13 02:19:02;;;;;;;1.63;1.33;;;10.40;99.90;;;;;;5040732;28;20189;-79
2023/05/13 02:21:28;;;;;;;1.20;1.20;;;10.40;99.90;;;;;;5045862;28;20203;-80
2023/05/13 02:23:54;;;;;;;0.97;0.97;;;10.50;99.90;;;;;;5042329;28;20208;-80
2023/05/13 02:26:21;;;;;;;0.93;0.93;;;10.50;99.90;;;;;;5035677;28;20168;-81
2023/05/13 02:28:47;;;;;;;1.10;1.10;;;10.60;99.90;;;;;;5035607;28;20638;-80
2023/05/13 02:31:12;;;;;;;0.90;0.90;;;10.60;99.90;;;;;;5035545;28;20262;-81
2023/05/13 02:33:38;;;;;;;1.07;1.07;;;10.60;99.90;;;;;;5035536;28;20591;-79
2023/05/13 02:36:04;;;;;;;0.97;0.97;;;10.60;99.90;;;;;;5035516;28;20647;-80
2023/05/13 02:38:30;;;;;;;1.00;1.00;;;10.60;99.90;;;;;;5034435;28;20677;-80
2023/05/13 02:40:55;;;;;;;1.03;1.03;;;10.60;99.90;;;;;;5035416;28;20268;-79
2023/05/13 02:43:23;;;;;;;1.20;1.20;;;10.60;99.90;;;;;;5035504;28;20650;-79
2023/05/13 02:45:49;;;;;;;1.13;1.13;;;10.60;99.90;;;;;;5035643;28;20175;-81
2023/05/13 02:48:15;;;;;;;1.30;1.30;;;10.60;99.90;;;;;;5035700;28;20175;-80
2023/05/13 02:50:41;;;;;;;1.30;1.30;;;10.60;99.90;;;;;;5035709;28;20188;-82
2023/05/13 02:53:06;;;;;;;1.20;1.20;;;10.60;99.90;;;;;;5036431;28;20175;-81
2023/05/13 02:55:32;;;;;;;1.20;1.20;;;10.60;99.90;;;;;;5035653;28;20737;-79
2023/05/13 02:57:58;;;;;;;1.30;1.30;;;10.60;99.90;;;;;;5035223;28;20860;-80
2023/05/13 03:00:24;;;;;;;1.33;1.30;;;10.60;99.90;;;;;;5035809;28;20185;-80
2023/05/13 03:02:50;;;;;;;1.20;1.20;;;10.60;99.90;;;;;;5035209;28;20217;-81
2023/05/13 03:05:16;;;;;;;1.20;1.20;;;10.60;99.90;;;;;;5039088;28;20639;-78
2023/05/13 03:07:42;;;;;;;1.30;1.30;;;10.60;99.90;;;;;;5045045;28;20223;-79
2023/05/13 03:10:09;;;;;;;1.40;1.40;;;10.60;99.90;;;;;;5035177;28;20740;-79
2023/05/13 03:12:35;;;;;;;1.23;1.23;;;10.60;99.90;;;;;;5033865;28;20196;-79
2023/05/13 03:15:02;;;;;;;1.70;1.70;;;10.60;99.90;;;;;;5035142;28;20665;-78
2023/05/13 03:17:29;;;;;;;1.30;1.30;;;10.60;99.90;;;;;;5035053;28;20177;-79
2023/05/13 03:19:55;;;;;;;1.20;1.20;;;10.70;99.90;;;;;;5035409;28;20177;-79
2023/05/13 03:22:21;;;;;;;1.40;1.40;;;10.70;99.90;;;;;;5035679;28;20179;-80
2023/05/13 03:24:46;;;;;;;1.60;1.50;;;10.60;99.90;;;;;;5035814;28;20174;-79
2023/05/13 03:27:13;;;;;;;1.50;1.50;;;10.60;99.90;;;;;;5037992;28;20222;-80
2023/05/13 03:29:40;;;;;;;1.50;1.50;;;10.60;99.90;;;;;;5035557;28;20166;-78
2023/05/13 03:32:06;;;;;;;1.53;1.53;;;10.60;99.90;;;;;;5034150;28;20179;-79
2023/05/13 03:34:35;;;;;;;1.50;1.50;;;10.60;99.90;;;;;;5035017;28;20172;-78
2023/05/13 03:37:01;;;;;;;1.43;1.37;;;10.60;99.90;;;;;;5035002;28;20212;-79
2023/05/13 03:39:26;;;;;;;1.60;1.60;;;10.50;99.90;;;;;;5035087;28;20705;-79
2023/05/13 03:41:52;;;;;;;1.30;1.30;;;10.60;99.90;;;;;;5035307;28;20186;-79
2023/05/13 03:44:18;;;;;;;1.67;1.67;;;10.60;99.90;;;;;;5036916;28;20178;-80
2023/05/13 03:46:43;;;;;;;1.70;1.70;;;10.50;99.90;;;;;;5037488;28;20230;-79
2023/05/13 03:49:09;;;;;;;1.50;1.50;;;10.60;99.90;;;;;;5035764;28;20181;-79
2023/05/13 03:51:35;;;;;;;1.80;1.70;;;10.60;99.90;;;;;;5033083;28;20186;-80
2023/05/13 03:54:01;;;;;;;1.50;1.50;;;10.60;99.90;;;;;;5034299;28;20657;-80
2023/05/13 03:56:27;;;;;;;1.73;1.63;;;10.60;99.90;;;;;;5034088;28;20207;-79
2023/05/13 03:58:53;;;;;;;1.80;1.70;;;10.70;99.90;;;;;;5032542;28;20182;-80
2023/05/13 04:01:19;;;;;;;1.70;1.60;;;10.60;99.90;;;;;;5034048;28;20534;-80
2023/05/13 04:03:45;;;;;;;1.53;1.53;;;10.50;99.90;;;;;;5034113;28;20180;-81
2023/05/13 04:06:12;;;;;;;1.50;1.50;;;10.50;99.90;;;;;;5032260;28;20236;-79
2023/05/13 04:08:39;;;;;;;1.80;1.80;;;10.50;99.90;;;;;;5034125;28;20196;-79
2023/05/13 04:11:05;;;;;;;1.33;1.33;;;10.60;99.90;;;;;;5033930;28;20675;-78
2023/05/13 04:13:34;;;;;;;1.70;1.70;;;10.60;99.90;;;;;;5033876;28;20187;-78
2023/05/13 04:15:59;;;;;;;1.77;1.67;;;10.60;99.90;;;;;;5033908;28;20353;-80
2023/05/13 04:18:25;;;;;;;1.80;1.70;;;10.60;99.90;;;;;;5033876;28;20259;-80
2023/05/13 04:20:51;;;;;;;2.20;2.10;;;10.60;99.90;;;;;;5033601;28;20643;-78
2023/05/13 04:23:17;;;;;;;1.80;1.70;;;10.60;99.90;;;;;;5034030;28;20174;-81
2023/05/13 04:25:49;;;;;;;2.10;2.00;;;10.60;99.90;;;;;;5034152;28;20180;-82
2023/05/13 04:28:15;;;;;;;2.23;2.13;;;10.70;99.90;;;;;;5036160;28;20179;-80
2023/05/13 04:30:42;;;;;;;2.40;2.30;;;10.70;99.90;;;;;;5034249;28;20186;-78
2023/05/13 04:33:07;;;;;;;2.07;1.90;;;10.70;99.90;;;;;;5034009;28;20191;-81
2023/05/13 04:35:33;;;;;;;1.77;1.77;;;10.60;99.90;;;;;;5033951;28;20218;-79
2023/05/13 04:37:59;;;;;;;2.17;2.07;;;10.70;99.90;;;;;;5035515;28;20187;-81
2023/05/13 04:40:25;;;;;;;2.10;2.00;;;10.70;99.90;;;;;;5034664;28;20183;-81
2023/05/13 04:42:53;;;;;;;2.40;2.30;;;10.60;99.90;;;;;;5033731;28;20176;-79
2023/05/13 04:45:20;;;;;;;2.40;2.30;;;10.70;99.90;;;;;;5033294;28;20198;-81
2023/05/13 04:47:47;;;;;;;2.40;2.30;;;10.70;99.90;;;;;;5033637;28;20169;-80
2023/05/13 04:50:15;;;;;;;2.93;2.83;;;10.80;99.90;;;;;;5033375;28;20172;-80
2023/05/13 04:52:41;;;;;;;2.57;2.43;;;10.80;99.90;;;;;;5032142;28;20178;-80
2023/05/13 04:55:13;;;;;;;2.80;2.70;;;10.90;99.90;;;;;;5031848;28;20215;-80
2023/05/13 04:57:38;;;;;;;3.30;3.10;;;10.80;99.90;;;;;;5035217;28;20167;-79
2023/05/13 05:00:05;;;;;;;3.37;3.17;;;10.90;99.90;;;;;;5033720;28;20318;-79
2023/05/13 05:02:31;;;;;;;3.57;3.27;;;10.90;99.90;;;;;;5033398;28;20654;-79
2023/05/13 05:04:57;;;;;;;4.10;3.80;;;10.90;99.90;;;;;;5033788;28;20175;-79
2023/05/13 05:07:22;;;;;;;4.30;4.00;;;10.80;99.90;;;;;;5034845;28;20231;-81
2023/05/13 05:09:48;;;;;;;3.97;3.67;;;10.90;99.90;;;;;;5036873;28;20185;-82
2023/05/13 05:12:14;;;;;;;4.50;4.10;;;10.90;99.90;;;;;;5042125;28;20178;-82
2023/05/13 05:14:40;;;;;;;4.23;3.93;;;10.90;99.90;;;;;;5042582;28;20229;-80
2023/05/13 05:17:06;;;;;;;4.13;3.77;;;10.90;99.90;;;;;;5033650;28;20240;-79
2023/05/13 05:19:32;;;;;;;4.47;4.17;;;10.80;99.90;;;;;;5033331;28;20259;-80
2023/05/13 05:21:57;;;;;;;4.63;4.33;;;10.80;99.90;;;;;;5029826;28;20724;-80
2023/05/13 05:24:23;;;;;;;4.50;4.20;;;10.80;99.90;;;;;;5032662;28;20636;-81
2023/05/13 05:26:49;;;;;;;4.93;4.53;;;10.70;99.90;;;;;;5032548;28;20179;-79
2023/05/13 05:29:15;;;;;;;4.33;4.03;;;10.80;99.90;;;;;;5032296;28;20169;-82
2023/05/13 05:31:40;;;;;;;4.83;4.43;;;10.80;99.90;;;;;;5032142;28;20182;-79
2023/05/13 05:34:06;;;;;;;4.97;4.50;;;10.80;99.90;;;;;;5032295;28;20186;-81
2023/05/13 05:36:32;;;;;;;5.10;4.70;;;10.80;99.90;;;;;;5032401;28;20531;-79
2023/05/13 05:38:58;;;;;;;5.77;5.27;;;10.70;99.90;;;;;;5030893;28;20187;-80
2023/05/13 05:41:24;;;;;;;5.40;4.90;;;10.70;99.90;;;;;;5032404;28;20632;-79
2023/05/13 05:43:49;;;;;;;6.57;5.97;;;10.70;99.90;;;;;;5032376;28;20183;-80
2023/05/13 05:46:15;;;;;;;5.77;5.27;;;10.70;99.90;;;;;;5036040;28;20197;-80
2023/05/13 05:48:41;;;;;;;6.30;5.70;;;10.70;99.90;;;;;;5037579;28;20174;-83
2023/05/13 05:51:07;;;;;;;6.20;5.70;;;10.80;99.90;;;;;;5033290;28;20187;-80
2023/05/13 05:53:36;;;;;;;8.13;6.17;;;10.80;99.90;;;;;;5032333;28;20178;-81
2023/05/13 05:56:03;;;;;;;7.70;6.83;;;10.80;99.90;;;;;;5032469;28;20299;-82
2023/05/13 05:58:29;;;;;;;7.23;6.53;;;10.80;99.90;;;;;;5032084;28;20172;-82
2023/05/13 06:00:55;;;;;;;6.80;6.10;;;10.80;99.90;;;;;;5032592;28;20181;-80
2023/05/13 06:03:21;;;;;;;6.63;6.03;;;10.80;99.90;;;;;;5034612;28;20201;-80
2023/05/13 06:05:47;;;;;;;7.10;6.37;;;10.70;99.90;;;;;;5032778;28;20684;-83
2023/05/13 06:08:13;;;;;;;7.80;7.00;;;10.70;99.90;;;;;;5032401;28;20223;-80
2023/05/13 06:10:39;;;;;;;8.37;6.70;;;10.80;99.90;;;;;;5032840;28;20666;-81
2023/05/13 06:13:05;;;;;;;7.53;6.60;;;10.80;99.90;;;;;;5035353;28;20642;-82
2023/05/13 06:15:33;;;;;;;7.57;6.73;;;10.80;99.90;;;;;;5034516;28;20297;-83
2023/05/13 06:18:00;;;;;;;7.13;6.50;;;10.80;99.90;;;;;;5032429;28;20181;-84
2023/05/13 06:20:26;;;;;;;7.40;6.70;;;10.90;99.90;;;;;;5032162;28;20513;-83
2023/05/13 06:22:51;;;;;;;6.70;6.10;;;10.90;99.90;;;;;;5032402;28;20177;-81
2023/05/13 06:25:17;;;;;;;6.77;6.17;;;10.90;99.90;;;;;;5032506;28;20187;-80
2023/05/13 06:27:43;;;;;;;7.13;5.63;;;10.90;99.90;;;;;;5032814;28;20172;-81
2023/05/13 06:30:09;;;;;;;6.53;5.93;;;11.00;99.90;;;;;;5031580;28;20219;-80
2023/05/13 06:32:35;;;;;;;6.33;5.83;;;11.00;99.90;;;;;;5034317;28;20632;-80
2023/05/13 06:35:01;;;;;;;6.07;5.47;;;11.00;99.90;;;;;;5038645;28;20186;-81
2023/05/13 06:37:27;;;;;;;6.10;5.50;;;11.00;99.90;;;;;;5039380;28;20552;-81
2023/05/13 06:39:53;;;;;;;5.30;4.90;;;11.10;99.90;;;;;;5031726;28;20521;-80
2023/05/13 06:42:18;;;;;;;6.27;5.67;;;11.10;99.90;;;;;;5031742;28;20214;-81
2023/05/13 06:44:44;;;;;;;6.03;5.53;;;11.10;99.90;;;;;;5036900;28;20171;-80
2023/05/13 06:47:14;;;;;;;5.50;5.00;;;11.10;99.90;;;;;;5039342;28;20604;-81
2023/05/13 06:49:40;;;;;;;5.90;5.40;;;11.10;99.90;;;;;;5035805;28;20525;-81
2023/05/13 06:52:07;;;;;;;7.10;6.40;;;11.10;99.90;;;;;;5034169;28;20175;-80
2023/05/13 06:54:33;;;;;;;5.70;5.20;;;11.10;99.90;;;;;;5035162;28;20187;-81
2023/05/13 06:56:59;;;;;;;5.93;5.13;;;11.10;99.90;;;;;;5035249;28;20290;-81
2023/05/13 06:59:25;;;;;;;5.90;5.33;;;11.00;99.90;;;;;;5035321;28;20329;-80
2023/05/13 07:01:51;;;;;;;6.00;5.40;;;11.10;99.90;;;;;;5036172;28;20171;-82
2023/05/13 07:04:16;;;;;;;5.70;5.20;;;11.10;99.90;;;;;;5036247;28;20234;-82
2023/05/13 07:06:42;;;;;;;5.93;5.27;;;11.10;99.90;;;;;;5036415;28;20310;-81
2023/05/13 07:09:08;;;;;;;5.93;5.10;;;11.10;99.90;;;;;;5050739;28;20356;-80
2023/05/13 07:11:35;;;;;;;5.33;4.93;;;11.20;99.90;;;;;;5039228;28;20184;-80
2023/05/13 07:14:01;;;;;;;5.47;5.00;;;11.20;99.90;;;;;;5035480;28;20194;-80
2023/05/13 07:16:27;;;;;;;4.87;4.40;;;11.20;99.90;;;;;;5034947;28;20209;-82
2023/05/13 07:18:53;;;;;;;4.77;4.37;;;11.30;99.90;;;;;;5034340;28;20206;-82
2023/05/13 07:21:19;;;;;;;4.80;4.40;;;11.30;99.90;;;;;;5034701;28;20594;-79
2023/05/13 07:23:45;;;;;;;5.33;4.37;;;11.30;99.90;;;;;;5033158;28;20658;-81
2023/05/13 07:26:11;;;;;;;4.07;3.77;;;11.30;99.90;;;;;;5034800;28;20188;-81
2023/05/13 07:28:37;;;;;;;4.20;3.90;;;11.30;99.90;;;;;;5034662;28;20237;-81
2023/05/13 07:31:06;;;;;;;4.07;3.77;;;11.40;99.90;;;;;;5034404;28;20180;-81
2023/05/13 07:33:31;;;;;;;4.10;3.80;;;11.40;99.90;;;;;;5033036;28;20295;-79
2023/05/13 07:35:57;;;;;;;3.77;3.40;;;11.40;99.90;;;;;;5033307;28;20306;-80
2023/05/13 07:38:23;;;;;;;3.60;3.37;;;11.40;99.90;;;;;;5034506;28;20186;-80
2023/05/13 07:40:49;;;;;;;3.60;3.40;;;11.30;99.90;;;;;;5034726;28;20190;-81
2023/05/13 07:43:22;;;;;;;3.63;3.43;;;11.30;99.90;;;;;;5034309;28;20171;-81
2023/05/13 07:45:49;;;;;;;3.53;3.27;;;11.40;99.90;;;;;;5034629;28;20628;-82
2023/05/13 07:48:16;;;;;;;3.10;3.00;;;11.40;99.90;;;;;;5035621;28;20172;-82
2023/05/13 07:50:43;;;;;;;3.47;3.17;;;11.40;99.90;;;;;;5034813;28;20176;-81
2023/05/13 07:53:09;;;;;;;3.00;2.80;;;11.50;99.90;;;;;;5034791;28;20234;-84
2023/05/13 07:55:35;;;;;;;3.43;3.23;;;11.50;99.90;;;;;;5034878;28;20203;-83
2023/05/13 07:58:01;;;;;;;3.60;3.17;;;11.40;99.90;;;;;;5043545;28;20192;-83
2023/05/13 08:00:27;;;;;;;3.50;3.20;;;11.40;99.90;;;;;;5047656;28;20179;-82
2023/05/13 08:02:53;;;;;;;3.33;3.13;;;11.40;99.90;;;;;;5039360;28;20513;-84
2023/05/13 08:05:18;;;;;;;3.10;2.90;;;11.30;99.90;;;;;;5034300;28;20174;-84
2023/05/13 08:07:46;;;;;;;3.17;2.97;;;11.30;99.90;;;;;;5034039;28;20557;-83
2023/05/13 08:10:11;;;;;;;3.30;3.10;;;11.30;99.90;;;;;;5034263;28;20197;-83
2023/05/13 08:12:39;;;;;;;2.90;2.80;;;11.30;99.90;;;;;;5033363;28;20671;-86
2023/05/13 08:15:06;;;;;;;3.20;3.00;;;11.30;99.90;;;;;;5034089;28;20167;-83
2023/05/13 08:17:32;;;;;;;2.77;2.67;;;11.50;99.90;;;;;;5033713;28;20260;-83
2023/05/13 08:19:57;;;;;;;2.90;2.80;;;11.40;99.90;;;;;;5032577;28;20675;-84
2023/05/13 08:22:25;;;;;;;2.93;2.70;;;11.40;99.90;;;;;;5033849;28;20230;-84
2023/05/13 08:24:50;;;;;;;3.03;2.87;;;11.40;99.90;;;;;;5036579;28;20569;-84
2023/05/13 08:27:16;;;;;;;2.80;2.70;;;11.40;99.90;;;;;;5041230;28;20267;-83
2023/05/13 08:29:42;;;;;;;2.70;2.60;;;11.50;99.90;;;;;;5038486;28;20184;-83
2023/05/13 08:32:09;;;;;;;2.40;2.30;;;11.50;99.90;;;;;;5032829;28;20202;-83
2023/05/13 08:34:35;;;;;;;2.53;2.43;;;11.50;99.90;;;;;;5033712;28;20233;-84
2023/05/13 08:37:01;;;;;;;2.30;2.20;;;11.30;99.90;;;;;;5032390;28;20683;-84
2023/05/13 08:39:27;;;;;;;2.50;2.40;;;11.30;99.90;;;;;;5032275;28;20644;-84
2023/05/13 08:41:56;;;;;;;2.30;2.20;;;11.30;99.90;;;;;;5033624;28;20739;-83
2023/05/13 08:44:27;;;;;;;2.53;2.27;;;11.30;99.90;;;;;;5033393;28;20699;-85
2023/05/13 08:47:15;;;;;;;2.43;2.33;;;11.40;99.90;;;;;;5033792;28;20163;-85
2023/05/13 08:49:41;;;;;;;2.77;2.53;;;11.60;99.90;;;;;;5032994;28;20167;-83
2023/05/13 08:52:07;;;;;;;2.20;2.10;;;11.60;99.90;;;;;;5034529;28;20182;-83
2023/05/13 08:54:33;;;;;;;2.20;2.10;;;11.70;99.90;;;;;;5035558;28;20277;-83
2023/05/13 08:56:59;;;;;;;2.37;2.27;;;11.90;99.90;;;;;;5034205;28;20207;-84
2023/05/13 08:59:24;;;;;;;2.20;2.10;;;11.90;99.90;;;;;;5040234;28;20187;-83
2023/05/13 09:01:52;;;;;;;2.30;2.20;;;12.00;99.90;;;;;;5038346;28;20183;-83
2023/05/13 09:04:18;;;;;;;2.43;2.33;;;12.10;99.90;;;;;;5033651;28;20241;-84
2023/05/13 09:06:46;;;;;;;2.13;2.03;;;12.00;99.90;;;;;;5031397;28;20235;-84
2023/05/13 09:09:12;;;;;;;2.80;2.60;;;12.10;99.90;;;;;;5034018;28;20161;-84
2023/05/13 09:11:39;;;;;;;2.10;2.00;;;12.10;99.90;;;;;;5037202;28;20615;-82
2023/05/13 09:14:07;;;;;;;2.20;2.10;;;12.20;99.90;;;;;;5035271;28;20256;-84
2023/05/13 09:16:35;;;;;;;2.03;2.00;;;12.10;99.90;;;;;;5034174;28;20200;-84
2023/05/13 09:19:05;;;;;;;2.47;2.37;;;12.10;99.90;;;;;;5034164;28;20262;-83
2023/05/13 09:21:34;;;;;;;2.63;2.53;;;12.10;99.90;;;;;;5035414;28;20674;-82
2023/05/13 09:24:17;;;;;;;3.40;2.60;;;12.10;99.90;;;;;;5046513;28;20199;-84
2023/05/13 09:26:44;;;;;;;3.00;2.80;;;11.90;99.90;;;;;;5047256;28;20151;-83
2023/05/13 09:29:20;;;;;;;3.30;3.00;;;11.90;99.90;;;;;;5054388;28;20190;-84
2023/05/13 09:31:54;;;;;;;3.30;3.10;;;11.80;99.90;;;;;;5056128;28;20267;-86
2023/05/13 09:34:33;;;;;;;3.70;3.50;;;11.80;99.90;;;;;;5040447;28;20186;-85
2023/05/13 09:37:05;;;;;;;5.07;4.60;;;11.80;99.90;;;;;;5043413;28;20226;-84
2023/05/13 09:39:33;;;;;;;5.13;4.63;;;11.90;99.90;;;;;;5034925;28;20177;-84
2023/05/13 09:42:02;;;;;;;3.43;3.20;;;11.90;99.90;;;;;;5036386;28;20635;-84
2023/05/13 09:44:29;;;;;;;3.47;3.17;;;12.00;99.90;;;;;;5037256;28;20181;-83
2023/05/13 09:46:55;;;;;;;2.93;2.80;;;12.00;99.90;;;;;;5035986;28;20209;-84
2023/05/13 09:49:25;;;;;;;3.10;2.90;;;11.90;99.90;;;;;;5039989;28;20207;-85
2023/05/13 09:51:51;;;;;;;3.23;3.03;;;11.90;99.90;;;;;;5035741;28;20230;-83
2023/05/13 09:54:17;;;;;;;2.57;2.47;;;11.90;99.90;;;;;;5037235;28;20172;-84
2023/05/13 09:56:43;;;;;;;2.97;2.77;;;12.00;99.90;;;;;;5036137;28;20213;-84
2023/05/13 09:59:09;;;;;;;2.50;2.40;;;12.00;99.90;;;;;;5035529;28;20179;-84
2023/05/13 10:01:35;;;;;;;2.67;2.50;;;11.90;99.90;;;;;;5035544;28;20185;-84
2023/05/13 10:04:04;;;;;;;2.67;2.57;;;11.90;99.90;;;;;;5039486;28;20244;-84
2023/05/13 10:06:30;;;;;;;2.60;2.50;;;12.00;99.90;;;;;;5039902;28;20653;-85
2023/05/13 10:09:02;;;;;;;2.93;2.73;;;12.10;99.90;;;;;;5035062;28;20172;-84
2023/05/13 10:11:29;;;;;;;3.80;2.60;;;12.20;99.90;;;;;;5032675;28;20201;-84
2023/05/13 10:13:59;;;;;;;2.20;2.10;;;12.20;99.90;;;;;;5032454;28;20184;-84
2023/05/13 10:16:26;;;;;;;1.90;1.87;;;12.20;99.90;;;;;;5032437;28;20221;-84
2023/05/13 10:18:52;;;;;;;1.97;1.87;;;12.30;99.90;;;;;;5036030;28;20184;-84
2023/05/13 10:21:18;;;;;;;2.47;2.37;;;12.30;99.90;;;;;;5036664;28;20176;-84
2023/05/13 10:23:46;;;;;;;2.27;2.17;;;12.30;99.90;;;;;;5035561;28;20177;-84
2023/05/13 10:26:12;;;;;;;2.67;2.00;;;12.20;99.90;;;;;;5037901;28;20648;-84
2023/05/13 10:28:38;;;;;;;2.00;1.90;;;12.30;99.90;;;;;;5034769;28;20231;-79
2023/05/13 10:31:04;;;;;;;2.37;2.27;;;12.30;99.90;;;;;;5036077;28;20180;-79
2023/05/13 10:33:30;;;;;;;2.53;2.43;;;12.30;99.90;;;;;;5035714;28;20176;-78
2023/05/13 10:36:01;;;;;;;2.60;2.40;;;12.30;99.90;;;;;;5036070;28;20285;-78
2023/05/13 10:38:42;;;;;;;2.33;2.23;;;12.30;99.90;;;;;;5035394;28;20271;-79
2023/05/13 10:41:45;;;;;;;2.40;2.30;;;12.30;99.90;;;;;;5035783;28;20239;-78
2023/05/13 10:44:12;;;;;;;2.33;2.23;;;11.90;99.90;;;;;;5035491;28;20178;-80
2023/05/13 10:46:38;;;;;;;2.30;2.20;;;11.90;99.90;;;;;;5038333;28;20173;-77
2023/05/13 10:49:04;;;;;;;2.67;2.57;;;12.00;99.90;;;;;;5039957;28;20196;-79
2023/05/13 10:51:31;;;;;;;3.00;2.90;;;12.10;99.90;;;;;;5044334;28;20179;-78
2023/05/13 10:53:57;;;;;;;3.27;3.07;;;12.10;99.90;;;;;;5037910;28;20183;-77
2023/05/13 10:56:27;;;;;;;3.30;3.10;;;11.90;99.90;;;;;;5036473;28;20215;-80
2023/05/13 10:58:57;;;;;;;3.90;3.60;;;12.50;99.90;;;;;;5034933;28;20230;-78
2023/05/13 11:01:41;;;;;;;4.10;3.80;;;11.90;99.90;;;;;;5034954;28;20263;-79
2023/05/13 11:04:16;;;;;;;4.33;4.03;;;11.70;99.90;;;;;;5035123;28;20215;-78
2023/05/13 11:06:45;;;;;;;4.87;4.47;;;11.70;99.90;;;;;;5036254;28;20253;-81
2023/05/13 11:09:37;;;;;;;4.70;4.30;;;11.70;99.90;;;;;;5040393;28;20187;-78
2023/05/13 11:12:03;;;;;;;5.30;4.80;;;11.70;99.90;;;;;;5032790;28;20188;-77
2023/05/13 11:14:30;;;;;;;6.13;5.30;;;11.70;99.90;;;;;;5034297;28;20199;-80
2023/05/13 11:17:03;;;;;;;6.60;6.00;;;11.70;99.90;;;;;;5034800;28;20290;-80
2023/05/13 11:19:34;;;;;;;6.67;5.97;;;11.60;99.90;;;;;;5038388;28;20206;-78
2023/05/13 11:22:11;;;;;;;6.47;5.60;;;11.60;99.90;;;;;;5037714;28;20184;-79
2023/05/13 11:24:37;;;;;;;13.13;7.63;;;11.60;99.90;;;;;;5049903;28;20229;-81
2023/05/13 11:27:19;;;;;;;9.07;6.73;;;11.70;99.90;;;;;;5054726;28;20182;-81
2023/05/13 11:29:50;;;;;;;8.40;6.40;;;11.60;99.90;;;;;;5086880;28;20280;-82
2023/05/13 11:32:50;;;;;;;7.90;6.73;;;11.70;99.90;;;;;;5054331;28;20167;-80
2023/05/13 11:35:23;;;;;;;9.97;7.27;;;11.70;99.90;;;;;;5054154;28;20194;-82
2023/05/13 11:37:49;;;;;;;9.63;7.93;;;11.80;99.90;;;;;;5054548;28;20228;-81
2023/05/13 11:40:32;;;;;;;10.60;7.57;;;11.80;99.90;;;;;;5054771;28;20174;-81
2023/05/13 11:42:59;;;;;;;9.40;7.70;;;11.80;99.90;;;;;;5058297;28;20195;-82
2023/05/13 11:45:26;;;;;;;8.33;7.27;;;11.90;99.90;;;;;;5041138;28;20203;-82
2023/05/13 11:47:53;;;;;;;8.23;6.50;;;12.00;99.90;;;;;;5034864;28;20170;-82
2023/05/13 11:50:20;;;;;;;9.63;7.40;;;12.10;99.90;;;;;;5034836;28;20198;-81
2023/05/13 11:52:57;;;;;;;10.23;7.70;;;11.90;99.90;;;;;;5034584;28;20174;-82
2023/05/13 11:55:26;;;;;;;9.20;7.70;;;11.80;99.90;;;;;;5033948;28;20203;-83
2023/05/13 11:57:53;;;;;;;11.03;7.13;;;11.60;99.90;;;;;;5034585;28;20190;-81
2023/05/13 12:00:25;;;;;;;8.37;6.90;;;11.60;99.90;;;;;;5033877;28;20270;-81
2023/05/13 12:02:50;;;;;;;8.67;7.23;;;11.70;99.90;;;;;;5034359;28;20540;-81
2023/05/13 12:05:16;;;;;;;9.37;7.50;;;11.80;99.90;;;;;;5035724;28;20648;-82
2023/05/13 12:07:43;;;;;;;8.97;6.80;;;11.80;99.90;;;;;;5035910;28;20258;-81
2023/05/13 12:10:11;;;;;;;7.63;6.23;;;11.80;99.90;;;;;;5034998;28;20612;-81
2023/05/13 12:12:39;;;;;;;7.20;6.53;;;11.80;99.90;;;;;;5038756;28;20181;-80
2023/05/13 12:15:09;;;;;;;9.43;7.37;;;11.80;99.90;;;;;;5041790;28;20263;-80
2023/05/13 12:17:36;;;;;;;8.60;6.73;;;11.70;99.90;;;;;;5040807;28;20176;-81
2023/05/13 12:20:15;;;;;;;7.93;6.80;;;11.60;99.90;;;;;;5037294;28;20187;-81
2023/05/13 12:22:43;;;;;;;10.90;7.17;;;11.70;99.90;;;;;;5035675;28;20175;-80
2023/05/13 12:25:37;;;;;;;10.30;7.17;;;11.70;99.90;;;;;;5033855;28;20638;-81
2023/05/13 12:28:16;;;;;;;8.07;6.97;;;11.80;99.90;;;;;;5040491;28;20165;-81
2023/05/13 12:30:52;;;;;;;8.03;6.80;;;11.80;99.90;;;;;;5034915;28;20179;-82
2023/05/13 12:33:30;;;;;;;6.97;5.77;;;11.80;99.90;;;;;;5036839;28;20170;-81
2023/05/13 12:36:16;;;;;;;6.17;5.57;;;11.80;99.90;;;;;;5036302;28;20196;-81
2023/05/13 12:39:00;;;;;;;6.53;5.53;;;11.80;99.90;;;;;;5037177;28;20536;-81
2023/05/13 12:41:36;;;;;;;7.63;5.60;;;11.90;99.90;;;;;;5042187;28;20173;-80
2023/05/13 12:44:06;;;;;;;6.70;5.40;;;11.90;99.90;;;;;;5046830;28;20535;-80
2023/05/13 12:46:33;;;;;;;5.37;4.87;;;11.80;99.90;;;;;;5040942;28;20259;-81
2023/05/13 12:49:01;;;;;;;6.13;5.53;;;11.80;99.90;;;;;;5033489;28;20594;-81